Time;durP1;ratioP1;P1;durP2;ratioP2;P2;SDS_P1;SDS_P2;PMS_P1;PMS_P2;Temp;Humidity;BMP_temperature;BMP_pressure;BME280_temperature;BME280_humidity;BME280_pressure;Samples;Min_cycle;Max_cycle;Signal;HPM_P1;HPM_P2
2021/07/20 00:01:31;;;;;;;21.00;12.48;;;17.60;94.90;;;;;;5020733;28;20428;-85
2021/07/20 00:03:57;;;;;;;21.08;12.70;;;17.50;94.80;;;;;;4998316;28;20056;-85
2021/07/20 00:06:22;;;;;;;24.38;12.43;;;17.50;95.20;;;;;;5015584;28;20029;-85
2021/07/20 00:08:48;;;;;;;22.10;12.60;;;17.50;95.50;;;;;;5006652;28;20036;-86
2021/07/20 00:11:13;;;;;;;26.25;13.15;;;17.50;95.70;;;;;;5010533;28;20029;-85
2021/07/20 00:13:39;;;;;;;24.63;13.50;;;17.50;96.20;;;;;;4993854;28;20018;-85
2021/07/20 00:16:05;;;;;;;23.70;13.75;;;17.40;95.90;;;;;;5009677;28;20095;-85
2021/07/20 00:18:33;;;;;;;24.00;12.82;;;17.50;96.30;;;;;;4990213;28;20108;-86
2021/07/20 00:20:59;;;;;;;20.75;13.07;;;17.40;95.70;;;;;;4990579;28;20033;-85
2021/07/20 00:23:25;;;;;;;26.85;14.05;;;17.40;96.00;;;;;;5001033;28;20504;-85
2021/07/20 00:25:51;;;;;;;24.63;13.40;;;17.40;95.70;;;;;;5014983;28;20064;-85
2021/07/20 00:28:16;;;;;;;22.25;13.68;;;17.30;95.80;;;;;;5010005;28;20072;-85
2021/07/20 00:30:42;;;;;;;27.85;13.98;;;17.30;95.70;;;;;;5005677;28;20033;-85
2021/07/20 00:33:08;;;;;;;27.00;14.00;;;17.30;96.00;;;;;;4998907;28;20088;-86
2021/07/20 00:35:33;;;;;;;27.85;15.05;;;17.30;96.40;;;;;;5000210;28;20061;-85
2021/07/20 00:37:59;;;;;;;22.85;14.90;;;17.20;96.40;;;;;;5006028;28;20573;-85
2021/07/20 00:40:27;;;;;;;26.50;14.18;;;17.20;96.20;;;;;;4989327;28;20039;-85
2021/07/20 00:42:53;;;;;;;23.67;14.57;;;17.20;95.90;;;;;;5006582;28;20133;-86
2021/07/20 00:45:18;;;;;;;32.88;16.58;;;17.10;96.00;;;;;;5023801;28;20116;-86
2021/07/20 00:47:45;;;;;;;31.48;15.48;;;17.10;96.30;;;;;;5009302;28;20743;-85
2021/07/20 00:50:11;;;;;;;24.40;14.38;;;17.10;96.60;;;;;;5026641;28;20120;-85
2021/07/20 00:52:37;;;;;;;28.10;15.25;;;17.00;96.70;;;;;;5026476;28;20041;-86
2021/07/20 00:55:03;;;;;;;23.45;14.68;;;17.00;96.70;;;;;;5009379;28;20029;-86
2021/07/20 00:57:29;;;;;;;23.55;14.82;;;17.00;96.90;;;;;;5025807;28;20449;-85
2021/07/20 00:59:57;;;;;;;26.17;14.60;;;17.00;96.90;;;;;;5012401;28;20140;-85
2021/07/20 01:02:23;;;;;;;30.15;15.25;;;16.90;96.30;;;;;;5010012;28;20116;-85
2021/07/20 01:04:49;;;;;;;25.00;15.50;;;16.90;96.70;;;;;;5009462;28;20552;-85
2021/07/20 01:07:14;;;;;;;24.63;14.45;;;16.90;97.10;;;;;;5025552;28;20742;-85
2021/07/20 01:09:40;;;;;;;28.90;14.45;;;16.90;97.00;;;;;;4991545;28;20047;-85
2021/07/20 01:12:05;;;;;;;25.35;14.45;;;16.80;96.40;;;;;;5011795;28;20033;-85
2021/07/20 01:14:31;;;;;;;28.30;15.43;;;16.80;96.70;;;;;;5025683;28;20041;-85
2021/07/20 01:16:57;;;;;;;29.63;14.40;;;16.80;96.80;;;;;;5034792;28;20044;-84
2021/07/20 01:19:22;;;;;;;20.88;13.27;;;16.80;96.80;;;;;;5013311;28;20068;-85
2021/07/20 01:21:48;;;;;;;25.60;14.07;;;16.70;96.80;;;;;;5025811;28;20030;-85
2021/07/20 01:24:15;;;;;;;21.58;13.50;;;16.70;96.90;;;;;;5025742;28;20049;-85
2021/07/20 01:26:40;;;;;;;27.50;13.93;;;16.70;96.90;;;;;;5025437;28;20025;-85
2021/07/20 01:29:06;;;;;;;27.13;14.90;;;16.60;96.80;;;;;;5008620;28;20022;-85
2021/07/20 01:31:39;;;;;;;21.98;13.30;;;16.60;97.00;;;;;;5008683;28;20522;-86
2021/07/20 01:34:05;;;;;;;20.50;12.68;;;16.60;97.10;;;;;;5009119;28;20029;-85
2021/07/20 01:36:31;;;;;;;20.88;13.38;;;16.50;96.80;;;;;;5009097;28;20095;-85
2021/07/20 01:38:57;;;;;;;24.58;14.75;;;16.50;96.90;;;;;;5009038;28;20061;-85
2021/07/20 01:41:22;;;;;;;24.23;14.73;;;16.50;96.90;;;;;;5009150;28;20022;-85
2021/07/20 01:43:56;;;;;;;23.27;14.52;;;16.40;96.90;;;;;;5025544;28;20092;-85
2021/07/20 01:46:23;;;;;;;23.88;14.82;;;16.40;97.00;;;;;;5009322;28;20071;-86
2021/07/20 01:48:50;;;;;;;26.23;14.63;;;16.40;97.50;;;;;;4996206;28;20037;-86
2021/07/20 01:51:16;;;;;;;24.95;13.90;;;16.40;97.60;;;;;;5029299;28;20021;-85
2021/07/20 01:53:42;;;;;;;26.58;15.27;;;16.30;97.00;;;;;;5013111;28;20847;-85
2021/07/20 01:56:08;;;;;;;26.38;14.45;;;16.30;97.10;;;;;;5028943;28;20091;-85
2021/07/20 01:58:38;;;;;;;25.52;15.10;;;16.30;97.30;;;;;;5013011;28;20834;-85
2021/07/20 02:01:04;;;;;;;23.55;14.18;;;16.20;97.20;;;;;;5015704;28;20451;-85
2021/07/20 02:03:45;;;;;;;25.55;14.50;;;16.20;97.40;;;;;;5012896;28;20107;-85
2021/07/20 02:08:55;;;;;;;24.15;14.90;;;16.20;97.90;;;;;;5034984;28;20048;-85
2021/07/20 02:11:28;;;;;;;31.17;14.73;;;16.20;97.60;;;;;;5011583;28;20038;-85
2021/07/20 02:13:56;;;;;;;24.73;14.20;;;16.20;97.40;;;;;;5013160;28;20029;-86
2021/07/20 02:16:30;;;;;;;22.60;14.93;;;16.10;97.40;;;;;;5011609;28;20033;-85
2021/07/20 02:19:11;;;;;;;26.60;14.40;;;16.10;97.60;;;;;;5028902;28;20021;-86
2021/07/20 02:21:46;;;;;;;23.50;14.20;;;16.10;97.60;;;;;;5028893;28;20028;-85
2021/07/20 02:24:11;;;;;;;23.45;14.90;;;16.10;97.60;;;;;;5019799;28;20029;-85
2021/07/20 02:26:37;;;;;;;26.63;14.75;;;16.10;97.50;;;;;;4997037;28;20077;-85
2021/07/20 02:29:02;;;;;;;26.55;15.07;;;16.00;97.80;;;;;;5023461;28;20568;-85
2021/07/20 02:31:28;;;;;;;24.10;14.02;;;16.00;97.50;;;;;;5041270;28;20056;-86
2021/07/20 02:33:53;;;;;;;23.50;14.65;;;16.00;98.10;;;;;;5006309;28;20111;-85
2021/07/20 02:36:19;;;;;;;24.35;14.35;;;16.00;97.50;;;;;;5020104;28;20029;-85
2021/07/20 02:38:45;;;;;;;28.00;15.57;;;16.00;97.60;;;;;;5025719;28;20435;-86
2021/07/20 02:41:11;;;;;;;28.27;15.35;;;16.00;97.60;;;;;;5027326;28;20037;-85
2021/07/20 02:43:37;;;;;;;27.15;15.82;;;15.90;97.60;;;;;;5011825;28;20135;-85
2021/07/20 02:46:04;;;;;;;23.90;15.27;;;15.90;97.50;;;;;;5011341;28;20037;-84
2021/07/20 02:48:30;;;;;;;28.40;15.02;;;15.90;98.10;;;;;;5011968;28;20033;-86
2021/07/20 02:50:55;;;;;;;24.20;14.32;;;15.90;97.80;;;;;;5012010;28;20035;-86
2021/07/20 02:53:21;;;;;;;24.70;14.60;;;15.90;97.70;;;;;;5011817;28;20041;-85
2021/07/20 02:55:48;;;;;;;24.98;15.68;;;15.90;98.10;;;;;;5008912;28;20125;-86
2021/07/20 02:58:14;;;;;;;26.35;15.90;;;15.90;97.70;;;;;;5011401;28;20471;-85
2021/07/20 03:00:39;;;;;;;26.27;15.38;;;15.80;98.00;;;;;;5011377;28;20056;-85
2021/07/20 03:03:06;;;;;;;28.60;16.58;;;15.90;98.10;;;;;;5008572;28;20038;-85
2021/07/20 03:05:32;;;;;;;27.15;16.13;;;15.90;98.20;;;;;;5008199;28;20030;-85
2021/07/20 03:07:58;;;;;;;28.48;16.80;;;15.90;98.40;;;;;;4992881;28;20049;-85
2021/07/20 03:10:26;;;;;;;27.58;16.48;;;15.90;97.90;;;;;;5019300;28;20683;-85
2021/07/20 03:12:52;;;;;;;31.00;16.58;;;15.90;98.00;;;;;;5002220;28;20779;-86
2021/07/20 03:15:18;;;;;;;29.35;16.58;;;15.90;98.20;;;;;;5011693;28;20072;-85
2021/07/20 03:17:44;;;;;;;27.67;14.48;;;15.90;97.70;;;;;;4996723;28;20116;-85
2021/07/20 03:20:10;;;;;;;30.60;15.32;;;15.80;97.70;;;;;;5008067;28;20022;-84
2021/07/20 03:22:36;;;;;;;27.65;16.08;;;15.80;97.50;;;;;;4994310;28;20017;-85
2021/07/20 03:25:03;;;;;;;25.95;15.90;;;15.70;97.60;;;;;;5011093;28;20124;-85
2021/07/20 03:27:31;;;;;;;26.90;16.90;;;15.70;98.10;;;;;;4994398;28;20025;-85
2021/07/20 03:29:57;;;;;;;29.73;16.15;;;15.70;97.90;;;;;;5011545;28;20441;-85
2021/07/20 03:32:24;;;;;;;29.88;17.60;;;15.60;98.00;;;;;;5027576;28;20112;-85
2021/07/20 03:34:49;;;;;;;27.80;16.13;;;15.60;98.60;;;;;;5010603;28;20035;-85
2021/07/20 03:37:15;;;;;;;32.95;16.40;;;15.60;97.90;;;;;;4991538;28;20030;-85
2021/07/20 03:39:40;;;;;;;28.58;16.20;;;15.60;97.90;;;;;;5001584;28;20562;-85
2021/07/20 03:42:08;;;;;;;30.73;17.00;;;15.60;98.00;;;;;;5022333;28;20044;-85
2021/07/20 03:44:34;;;;;;;26.63;16.10;;;15.50;97.90;;;;;;5007724;28;20036;-85
2021/07/20 03:46:59;;;;;;;29.50;16.10;;;15.50;98.30;;;;;;4975641;28;20034;-85
2021/07/20 03:49:25;;;;;;;29.27;16.00;;;15.50;98.30;;;;;;5007596;28;20037;-85
2021/07/20 03:51:51;;;;;;;28.45;16.20;;;15.40;97.90;;;;;;5027021;28;20041;-85
2021/07/20 03:54:17;;;;;;;28.63;15.65;;;15.40;97.90;;;;;;5027672;28;20111;-85
2021/07/20 03:56:42;;;;;;;32.70;17.67;;;15.40;98.00;;;;;;5009785;28;20036;-85
2021/07/20 03:59:11;;;;;;;33.13;17.17;;;15.40;98.20;;;;;;4989525;28;20022;-86
2021/07/20 04:01:38;;;;;;;31.75;16.35;;;15.40;98.30;;;;;;5045830;28;20059;-85
2021/07/20 04:04:06;;;;;;;33.47;17.25;;;15.40;98.10;;;;;;5013968;28;20530;-85
2021/07/20 04:06:32;;;;;;;32.08;18.02;;;15.40;98.00;;;;;;5010794;28;20116;-85
2021/07/20 04:08:58;;;;;;;31.73;17.80;;;15.40;98.20;;;;;;5009937;28;20109;-85
2021/07/20 04:11:23;;;;;;;32.55;17.23;;;15.40;98.30;;;;;;5013345;28;20026;-85
2021/07/20 04:13:50;;;;;;;31.10;17.55;;;15.40;98.10;;;;;;5026949;28;20032;-85
2021/07/20 04:16:16;;;;;;;30.42;17.13;;;15.40;98.40;;;;;;5010201;28;20083;-85
2021/07/20 04:18:41;;;;;;;29.42;17.23;;;15.40;98.40;;;;;;5010121;28;20026;-86
2021/07/20 04:21:07;;;;;;;36.03;17.73;;;15.40;98.30;;;;;;5026703;28;20099;-85
2021/07/20 04:23:33;;;;;;;31.20;18.83;;;15.40;98.20;;;;;;5011984;28;20120;-85
2021/07/20 04:25:59;;;;;;;32.25;17.90;;;15.40;98.20;;;;;;5017471;28;20038;-85
2021/07/20 04:28:25;;;;;;;32.30;18.58;;;15.40;98.40;;;;;;5025956;28;20101;-85
2021/07/20 04:30:51;;;;;;;33.90;18.30;;;15.40;98.50;;;;;;5009118;28;20045;-85
2021/07/20 04:33:24;;;;;;;34.17;18.42;;;15.40;98.30;;;;;;5026591;28;20087;-85
2021/07/20 04:35:50;;;;;;;30.52;17.42;;;15.40;98.20;;;;;;5026326;28;20033;-85
2021/07/20 04:38:15;;;;;;;63.17;30.60;;;15.40;98.20;;;;;;5034533;28;20078;-85
2021/07/20 04:40:41;;;;;;;40.28;20.80;;;15.40;98.40;;;;;;4998402;28;20041;-84
2021/07/20 04:43:07;;;;;;;43.28;20.88;;;15.40;98.50;;;;;;5006483;28;20036;-85
2021/07/20 04:45:32;;;;;;;36.97;19.75;;;15.40;98.50;;;;;;5025287;28;20377;-85
2021/07/20 04:47:58;;;;;;;35.40;19.15;;;15.40;98.50;;;;;;5025738;28;20108;-85
2021/07/20 04:50:23;;;;;;;39.22;19.38;;;15.40;98.20;;;;;;5019248;28;20060;-85
2021/07/20 04:52:49;;;;;;;34.47;18.33;;;15.50;98.70;;;;;;5013144;28;20514;-85
2021/07/20 04:55:14;;;;;;;39.90;19.73;;;15.50;98.40;;;;;;5005203;28;20488;-85
2021/07/20 04:57:40;;;;;;;40.38;19.40;;;15.40;98.20;;;;;;5005961;28;20033;-85
2021/07/20 05:00:09;;;;;;;37.95;20.73;;;15.50;98.20;;;;;;4997088;28;20389;-86
2021/07/20 05:02:36;;;;;;;35.10;20.15;;;15.50;98.30;;;;;;5011586;28;20024;-85
2021/07/20 05:05:02;;;;;;;40.30;20.38;;;15.50;98.50;;;;;;5029638;28;20032;-85
2021/07/20 05:07:28;;;;;;;33.88;19.98;;;15.50;98.70;;;;;;5012727;28;20075;-85
2021/07/20 05:09:53;;;;;;;37.72;20.70;;;15.50;98.50;;;;;;5029593;28;20032;-85
2021/07/20 05:12:19;;;;;;;32.92;18.95;;;15.60;98.50;;;;;;5023444;28;20488;-85
2021/07/20 05:14:45;;;;;;;40.20;20.55;;;15.60;98.70;;;;;;5026016;28;20563;-85
2021/07/20 05:17:10;;;;;;;44.15;20.17;;;15.60;99.00;;;;;;5025917;28;20550;-85
2021/07/20 05:19:39;;;;;;;39.75;21.92;;;15.60;98.70;;;;;;5011681;28;20021;-85
2021/07/20 05:22:04;;;;;;;39.53;22.10;;;15.70;98.90;;;;;;5002201;28;20029;-85
2021/07/20 05:24:31;;;;;;;38.80;20.50;;;15.70;98.40;;;;;;5022606;28;20040;-85
2021/07/20 05:26:57;;;;;;;39.08;20.75;;;15.70;98.50;;;;;;5006106;28;20762;-85
2021/07/20 05:29:24;;;;;;;40.90;20.40;;;15.70;98.40;;;;;;5029047;23;20095;-87
2021/07/20 05:31:55;;;;;;;40.30;22.63;;;15.70;98.40;;;;;;5009916;28;20021;-86
2021/07/20 05:34:21;;;;;;;38.97;21.63;;;15.80;98.60;;;;;;5006312;28;20044;-89
2021/07/20 05:36:47;;;;;;;41.10;20.27;;;15.80;98.50;;;;;;5020445;28;20029;-89
2021/07/20 05:39:13;;;;;;;37.70;19.90;;;15.80;98.60;;;;;;5029925;28;20032;-87
2021/07/20 05:41:42;;;;;;;40.97;21.73;;;15.90;98.60;;;;;;5014259;28;20084;-88
2021/07/20 05:44:14;;;;;;;43.72;22.65;;;15.90;98.50;;;;;;5013482;28;20045;-88
2021/07/20 05:46:43;;;;;;;39.42;21.67;;;15.90;98.40;;;;;;5009439;28;20424;-87
2021/07/20 05:49:10;;;;;;;41.22;21.55;;;15.90;98.40;;;;;;5013490;28;20022;-88
2021/07/20 05:51:39;;;;;;;40.58;21.63;;;15.90;98.40;;;;;;5013947;28;20032;-88
2021/07/20 05:54:14;;;;;;;47.97;22.50;;;15.90;98.50;;;;;;5014030;28;20112;-88
2021/07/20 05:56:39;;;;;;;42.85;22.50;;;16.00;98.60;;;;;;5028886;28;20033;-89
2021/07/20 05:59:05;;;;;;;44.60;21.33;;;16.00;98.60;;;;;;5025861;28;20068;-88
2021/07/20 06:01:31;;;;;;;43.25;21.20;;;16.00;98.40;;;;;;4993220;28;20025;-87
2021/07/20 06:03:56;;;;;;;44.88;22.52;;;16.10;98.30;;;;;;5027237;28;20495;-86
2021/07/20 06:06:28;;;;;;;41.67;21.40;;;16.10;98.40;;;;;;5035256;28;20036;-87
2021/07/20 06:08:59;;;;;;;45.15;22.58;;;16.20;98.40;;;;;;5012935;28;20025;-87
2021/07/20 06:11:24;;;;;;;43.37;22.13;;;16.20;98.30;;;;;;5029492;28;20112;-87
2021/07/20 06:13:52;;;;;;;41.03;21.67;;;16.30;98.20;;;;;;5015941;28;20355;-89
2021/07/20 06:16:22;;;;;;;43.40;22.30;;;16.30;98.00;;;;;;4990187;28;20444;-87
2021/07/20 06:18:48;;;;;;;44.30;22.73;;;16.30;97.90;;;;;;5005967;28;20018;-86
2021/07/20 06:21:14;;;;;;;43.17;21.02;;;16.40;98.10;;;;;;5006268;28;20033;-88
2021/07/20 06:23:43;;;;;;;40.70;21.65;;;16.40;98.00;;;;;;5006491;28;20113;-87
2021/07/20 06:26:09;;;;;;;47.17;22.48;;;16.40;98.20;;;;;;5006444;28;20033;-87
2021/07/20 06:28:36;;;;;;;42.10;20.80;;;16.50;98.20;;;;;;5021067;28;20574;-87
2021/07/20 06:31:01;;;;;;;42.45;22.05;;;16.50;98.10;;;;;;5009373;28;20500;-87
2021/07/20 06:33:27;;;;;;;41.25;21.95;;;16.60;98.20;;;;;;5010115;28;20036;-89
2021/07/20 06:35:52;;;;;;;43.00;23.70;;;16.60;98.10;;;;;;5013982;28;20080;-87
2021/07/20 06:38:18;;;;;;;43.97;22.60;;;16.60;98.00;;;;;;5016117;28;20029;-87
2021/07/20 06:40:45;;;;;;;45.17;22.77;;;16.70;98.00;;;;;;5012509;28;20030;-88
2021/07/20 06:43:11;;;;;;;38.47;21.48;;;16.70;97.90;;;;;;5012689;28;20069;-89
2021/07/20 06:45:38;;;;;;;39.50;21.58;;;16.70;97.90;;;;;;5012976;28;20736;-87
2021/07/20 06:48:04;;;;;;;46.70;22.85;;;16.80;98.00;;;;;;5009132;28;20124;-89
2021/07/20 06:50:29;;;;;;;43.15;22.02;;;16.80;97.90;;;;;;4993913;28;20128;-87
2021/07/20 06:52:55;;;;;;;36.13;20.70;;;16.90;97.90;;;;;;4996486;28;20030;-87
2021/07/20 06:55:22;;;;;;;38.20;20.80;;;16.80;97.70;;;;;;5009282;28;20476;-88
2021/07/20 06:57:47;;;;;;;42.22;21.30;;;16.90;97.70;;;;;;5012184;28;20522;-87
2021/07/20 07:00:16;;;;;;;34.40;18.70;;;16.90;97.70;;;;;;5012352;28;20025;-88
2021/07/20 07:02:42;;;;;;;34.72;19.45;;;17.00;97.80;;;;;;5011445;28;20033;-89
2021/07/20 07:05:10;;;;;;;34.75;19.08;;;17.00;97.90;;;;;;5011301;28;20053;-87
2021/07/20 07:07:36;;;;;;;39.72;18.23;;;17.10;97.60;;;;;;4995790;28;20025;-89
2021/07/20 07:10:02;;;;;;;34.38;18.52;;;17.10;97.70;;;;;;5012082;28;20063;-87
2021/07/20 07:12:28;;;;;;;29.63;17.42;;;17.10;97.40;;;;;;5028931;28;20033;-89
2021/07/20 07:14:53;;;;;;;30.80;17.88;;;17.20;97.30;;;;;;5010708;28;20038;-88
2021/07/20 07:17:19;;;;;;;33.28;16.92;;;17.30;97.20;;;;;;4999753;28;20021;-87
2021/07/20 07:19:47;;;;;;;29.52;16.98;;;17.30;97.20;;;;;;5018040;28;20025;-88
2021/07/20 07:22:13;;;;;;;37.33;17.65;;;17.30;97.20;;;;;;5031608;28;20017;-88
2021/07/20 07:24:38;;;;;;;32.28;18.23;;;17.40;97.00;;;;;;5007279;28;20056;-87
2021/07/20 07:27:04;;;;;;;34.42;17.10;;;17.40;96.80;;;;;;5019610;28;20116;-87
2021/07/20 07:29:29;;;;;;;30.20;16.67;;;17.40;96.90;;;;;;5010957;28;20507;-88
2021/07/20 07:31:55;;;;;;;35.17;16.45;;;17.50;96.60;;;;;;4992280;28;20033;-87
2021/07/20 07:34:20;;;;;;;33.78;16.70;;;17.50;96.50;;;;;;4994381;28;20026;-87
2021/07/20 07:36:46;;;;;;;35.65;17.25;;;17.50;96.40;;;;;;5014753;28;20056;-87
2021/07/20 07:39:12;;;;;;;29.63;16.50;;;17.60;96.30;;;;;;5014268;28;20021;-87
2021/07/20 07:41:39;;;;;;;27.30;15.57;;;17.60;96.20;;;;;;5012440;28;20381;-87
2021/07/20 07:44:05;;;;;;;34.42;17.23;;;17.60;96.00;;;;;;5015166;28;20021;-89
2021/07/20 07:46:31;;;;;;;29.27;15.98;;;17.70;95.70;;;;;;5027661;28;20038;-87
2021/07/20 07:48:57;;;;;;;26.50;16.35;;;17.70;96.00;;;;;;4997402;28;20080;-88
2021/07/20 07:51:22;;;;;;;27.85;15.60;;;17.70;95.70;;;;;;5008638;28;20439;-87
2021/07/20 07:53:48;;;;;;;26.98;15.32;;;17.70;95.70;;;;;;5022109;28;20545;-87
2021/07/20 07:56:14;;;;;;;25.80;15.23;;;17.70;95.80;;;;;;5008104;28;20463;-86
2021/07/20 07:58:39;;;;;;;27.00;15.20;;;17.80;95.80;;;;;;5010944;28;20061;-88
2021/07/20 08:01:05;;;;;;;24.70;15.45;;;17.90;95.80;;;;;;5041776;28;20067;-87
2021/07/20 08:03:31;;;;;;;26.05;15.95;;;17.90;95.30;;;;;;5014915;28;20017;-87
2021/07/20 08:05:58;;;;;;;27.63;14.68;;;17.90;95.30;;;;;;5014263;28;20032;-87
2021/07/20 08:08:24;;;;;;;28.00;14.57;;;18.00;95.50;;;;;;5014788;28;20032;-87
2021/07/20 08:10:51;;;;;;;22.13;14.25;;;18.00;95.30;;;;;;4997747;28;20492;-87
2021/07/20 08:13:17;;;;;;;21.25;13.55;;;18.10;94.70;;;;;;5011500;28;20029;-87
2021/07/20 08:15:43;;;;;;;26.10;13.27;;;18.10;94.90;;;;;;5010808;28;20442;-87
2021/07/20 08:18:09;;;;;;;20.10;12.70;;;18.20;94.70;;;;;;5010852;28;20120;-87
2021/07/20 08:20:34;;;;;;;24.13;13.38;;;18.30;94.70;;;;;;5007622;28;20477;-88
2021/07/20 08:23:00;;;;;;;21.77;12.68;;;18.40;94.60;;;;;;5007780;28;20034;-88
2021/07/20 08:25:39;;;;;;;21.20;12.95;;;18.50;94.50;;;;;;4999492;28;20033;-87
2021/07/20 08:28:05;;;;;;;19.85;12.82;;;18.60;94.20;;;;;;5026793;28;20769;-87
2021/07/20 08:30:37;;;;;;;20.42;12.40;;;18.70;93.50;;;;;;5028632;28;20098;-87
2021/07/20 08:33:02;;;;;;;20.02;11.73;;;18.70;93.60;;;;;;5029609;28;20499;-87
2021/07/20 08:35:29;;;;;;;21.75;11.52;;;18.80;93.00;;;;;;5014193;28;20032;-87
2021/07/20 08:37:57;;;;;;;25.25;12.90;;;18.90;93.20;;;;;;4997336;28;20033;-87
2021/07/20 08:40:48;;;;;;;26.80;12.55;;;18.90;93.00;;;;;;5010314;28;20123;-87
2021/07/20 08:43:52;;;;;;;21.17;11.82;;;19.00;92.50;;;;;;5010891;28;20036;-88
2021/07/20 08:46:37;;;;;;;20.27;11.50;;;19.00;92.50;;;;;;5044318;28;20098;-87
2021/07/20 08:49:33;;;;;;;19.15;11.98;;;19.10;92.60;;;;;;5014605;28;20032;-88
2021/07/20 08:52:12;;;;;;;18.80;11.57;;;19.10;92.60;;;;;;5045497;28;20396;-89
2021/07/20 08:54:54;;;;;;;16.27;10.75;;;19.20;92.30;;;;;;5014118;28;20029;-87
2021/07/20 08:57:34;;;;;;;19.23;11.35;;;19.20;92.30;;;;;;4996794;28;20481;-89
2021/07/20 09:00:22;;;;;;;18.17;10.63;;;19.20;91.70;;;;;;5010132;28;20038;-89
2021/07/20 09:03:10;;;;;;;16.70;11.20;;;19.30;91.70;;;;;;5012336;28;20032;-88
2021/07/20 09:05:45;;;;;;;20.60;10.07;;;19.30;91.30;;;;;;5030673;28;20036;-88
2021/07/20 09:08:17;;;;;;;18.73;10.82;;;19.40;91.90;;;;;;5014497;28;20485;-88
2021/07/20 09:11:10;;;;;;;17.13;10.48;;;19.50;91.70;;;;;;5014176;28;20033;-88
2021/07/20 09:13:37;;;;;;;21.92;11.02;;;19.50;91.40;;;;;;5013660;28;20087;-87
2021/07/20 09:16:30;;;;;;;14.98;9.75;;;19.60;91.00;;;;;;5013435;28;20037;-88
2021/07/20 09:19:35;;;;;;;17.95;10.43;;;19.50;90.00;;;;;;5010313;28;20056;-87
2021/07/20 09:22:06;;;;;;;16.83;10.45;;;19.60;90.00;;;;;;4993348;28;20060;-87
2021/07/20 09:24:59;;;;;;;17.20;11.13;;;19.60;90.20;;;;;;5000068;28;20633;-88
2021/07/20 09:27:30;;;;;;;16.55;10.50;;;19.60;89.90;;;;;;5032664;28;20078;-88
2021/07/20 09:29:55;;;;;;;17.58;11.07;;;19.60;90.10;;;;;;5033664;28;20119;-89
2021/07/20 09:32:53;;;;;;;20.80;12.52;;;19.60;90.10;;;;;;5017351;28;20499;-87
2021/07/20 09:35:40;;;;;;;18.30;11.30;;;19.60;89.40;;;;;;5050204;28;20518;-87
2021/07/20 09:38:26;;;;;;;34.90;15.57;;;19.60;89.10;;;;;;5035149;28;20029;-87
2021/07/20 09:41:14;;;;;;;24.65;13.00;;;19.60;87.70;;;;;;5018739;28;20369;-88
2021/07/20 09:43:58;;;;;;;22.00;12.20;;;19.60;87.30;;;;;;5036234;28;20056;-88
2021/07/20 09:46:54;;;;;;;21.30;12.40;;;19.60;88.60;;;;;;5014031;28;20557;-88
2021/07/20 09:49:45;;;;;;;18.95;12.48;;;19.60;87.60;;;;;;5030178;28;20120;-87
2021/07/20 09:52:14;;;;;;;;;;;19.60;88.90;;;;;;5030768;28;20045;-88
2021/07/20 09:55:07;;;;;;;19.98;11.85;;;19.60;89.90;;;;;;5046713;28;20272;-88
2021/07/20 09:58:10;;;;;;;22.05;11.70;;;19.60;89.80;;;;;;5016253;28;20036;-88
2021/07/20 10:00:58;;;;;;;19.67;11.45;;;19.60;88.30;;;;;;5028242;28;20072;-87
2021/07/20 10:03:30;;;;;;;18.42;11.68;;;19.70;87.20;;;;;;5029818;28;20021;-87
2021/07/20 10:06:14;;;;;;;22.08;11.75;;;19.70;87.70;;;;;;5029981;28;20116;-88
2021/07/20 10:08:42;;;;;;;17.38;10.82;;;19.80;87.50;;;;;;5033257;28;20026;-88
2021/07/20 10:11:17;;;;;;;21.08;12.43;;;19.80;88.10;;;;;;5017607;28;20147;-87
2021/07/20 10:13:58;;;;;;;16.33;12.05;;;19.80;85.90;;;;;;5017474;28;20481;-89
2021/07/20 10:16:40;;;;;;;18.58;12.07;;;19.80;88.30;;;;;;5033786;28;20029;-88
2021/07/20 10:19:10;;;;;;;17.70;11.82;;;19.90;89.10;;;;;;5019326;28;20460;-87
2021/07/20 10:21:40;;;;;;;19.33;12.55;;;19.90;86.40;;;;;;5031718;28;20542;-89
2021/07/20 10:24:14;;;;;;;23.98;12.85;;;19.90;85.50;;;;;;5016305;28;20032;-89
2021/07/20 10:26:57;;;;;;;20.38;12.77;;;19.90;86.40;;;;;;5015773;28;20496;-88
2021/07/20 10:29:39;;;;;;;17.63;11.80;;;19.90;86.10;;;;;;5050007;28;20131;-88
2021/07/20 10:32:23;;;;;;;21.98;12.10;;;19.90;86.30;;;;;;5033183;28;20029;-88
2021/07/20 10:34:55;;;;;;;20.63;12.63;;;19.90;86.50;;;;;;5050094;28;20122;-87
2021/07/20 10:37:23;;;;;;;21.70;12.75;;;19.90;85.10;;;;;;5034027;28;20021;-87
2021/07/20 10:39:59;;;;;;;19.95;12.82;;;19.90;81.70;;;;;;4998365;28;20438;-88
2021/07/20 10:42:37;;;;;;;24.13;12.60;;;19.90;82.30;;;;;;5024414;28;20045;-88
2021/07/20 10:45:09;;;;;;;18.17;12.13;;;19.90;82.00;;;;;;5026254;28;20112;-88
2021/07/20 10:47:42;;;;;;;21.42;12.43;;;19.90;83.50;;;;;;5025593;28;20022;-87
2021/07/20 10:50:12;;;;;;;22.10;11.73;;;19.90;86.60;;;;;;5045743;28;20021;-87
2021/07/20 10:52:56;;;;;;;22.35;12.70;;;19.90;87.20;;;;;;4996735;28;20083;-87
2021/07/20 10:55:28;;;;;;;19.02;12.23;;;19.90;84.30;;;;;;5029749;28;20034;-88
2021/07/20 10:58:24;;;;;;;17.35;11.60;;;19.90;84.00;;;;;;5014892;28;20017;-88
2021/07/20 11:01:16;;;;;;;17.55;11.20;;;19.90;86.90;;;;;;5015984;28;20055;-88
2021/07/20 11:04:02;;;;;;;19.70;12.27;;;20.00;89.10;;;;;;5034507;28;20033;-87
2021/07/20 11:06:28;;;;;;;15.20;10.95;;;20.00;88.80;;;;;;5009521;28;20033;-88
2021/07/20 11:08:56;;;;;;;16.20;11.45;;;20.00;90.40;;;;;;4993044;28;20034;-88
2021/07/20 11:11:37;;;;;;;14.43;9.93;;;20.00;91.10;;;;;;4993406;28;20033;-87
2021/07/20 11:14:02;;;;;;;;;;;20.10;90.20;;;;;;5023994;28;20041;-87
2021/07/20 11:16:30;;;;;;;17.73;11.18;;;20.10;89.60;;;;;;5008785;28;19913;-88
2021/07/20 11:18:55;;;;;;;17.02;10.45;;;20.10;88.60;;;;;;4992226;28;20045;-87
2021/07/20 11:21:23;;;;;;;14.70;10.30;;;20.10;88.20;;;;;;4992299;28;20022;-89
2021/07/20 11:23:49;;;;;;;15.77;10.63;;;20.20;88.00;;;;;;4993299;28;20033;-89
2021/07/20 11:26:15;;;;;;;13.23;9.95;;;20.20;89.60;;;;;;4995422;28;20030;-87
2021/07/20 11:28:44;;;;;;;18.63;11.68;;;20.30;87.60;;;;;;4991672;28;20637;-89
2021/07/20 11:31:12;;;;;;;19.48;11.50;;;20.30;81.50;;;;;;5029624;28;20446;-88
2021/07/20 11:33:40;;;;;;;16.00;11.45;;;20.40;84.70;;;;;;5016407;28;20025;-89
2021/07/20 11:36:06;;;;;;;17.25;12.18;;;20.40;85.90;;;;;;5014786;28;20033;-88
2021/07/20 11:38:33;;;;;;;16.48;11.23;;;20.40;86.90;;;;;;5015231;28;20025;-88
2021/07/20 11:41:33;;;;;;;16.10;10.75;;;20.40;86.70;;;;;;5012509;23;20059;-86
2021/07/20 11:44:22;;;;;;;17.73;11.75;;;20.40;86.70;;;;;;5026088;28;20108;-86
2021/07/20 11:47:06;;;;;;;20.17;11.75;;;20.40;84.80;;;;;;5027445;28;20060;-86
2021/07/20 11:50:04;;;;;;;19.00;11.90;;;20.40;82.90;;;;;;5011308;28;20040;-86
2021/07/20 11:52:39;;;;;;;20.67;11.52;;;20.40;78.80;;;;;;5013747;28;20029;-86
2021/07/20 11:55:07;;;;;;;17.60;11.45;;;20.50;79.90;;;;;;4978004;28;20105;-86
2021/07/20 11:57:57;;;;;;;17.23;11.13;;;20.60;80.10;;;;;;5007068;28;20213;-87
2021/07/20 12:00:58;;;;;;;16.58;11.48;;;20.60;82.80;;;;;;5007818;28;20034;-86
2021/07/20 12:03:51;;;;;;;19.45;11.38;;;20.60;80.70;;;;;;4993511;28;20129;-87
2021/07/20 12:06:52;;;;;;;21.58;12.43;;;20.60;82.30;;;;;;4992696;28;20071;-87
2021/07/20 12:09:20;;;;;;;18.73;11.57;;;20.70;82.40;;;;;;4992236;28;20397;-87
2021/07/20 12:11:46;;;;;;;17.98;11.60;;;20.70;82.50;;;;;;5015085;28;20703;-86
2021/07/20 12:14:12;;;;;;;19.70;12.40;;;20.70;81.40;;;;;;4975065;28;20029;-86
2021/07/20 12:16:41;;;;;;;17.10;11.65;;;20.70;81.30;;;;;;4991040;28;20066;-86
2021/07/20 12:19:07;;;;;;;19.58;11.77;;;20.80;83.00;;;;;;5006679;28;20034;-86
2021/07/20 12:21:34;;;;;;;23.40;13.40;;;20.80;80.80;;;;;;5007380;28;20037;-86
2021/07/20 12:24:08;;;;;;;26.05;13.38;;;20.90;76.60;;;;;;4976533;28;20022;-87
2021/07/20 12:26:33;;;;;;;17.55;12.45;;;20.90;76.40;;;;;;4955812;28;20041;-87
2021/07/20 12:28:59;;;;;;;17.75;12.02;;;21.00;79.30;;;;;;4981080;28;20034;-86
2021/07/20 12:31:28;;;;;;;19.55;11.43;;;21.00;77.70;;;;;;5006266;28;20501;-86
2021/07/20 12:33:54;;;;;;;18.20;11.15;;;21.10;80.00;;;;;;4990947;28;20769;-86
2021/07/20 12:36:19;;;;;;;19.25;12.32;;;21.10;80.60;;;;;;4990559;28;20121;-87
2021/07/20 12:38:45;;;;;;;15.57;11.93;;;21.10;79.60;;;;;;4990359;28;20022;-81
2021/07/20 12:41:12;;;;;;;23.00;11.45;;;21.10;79.80;;;;;;5012395;28;20052;-81
2021/07/20 12:43:45;;;;;;;19.02;12.30;;;21.10;79.20;;;;;;5011848;28;20022;-81
2021/07/20 12:46:20;;;;;;;23.45;13.40;;;21.10;79.90;;;;;;4976962;28;20513;-81